La Aurora Airport
MGGT : rendu visible

Aérodrome :











RETROUVEZ-NOUS SUR...

 
LOGIN :

S'inscrire | Disclaimer

   EN    FR    IT 

 









Légende :    VFR   VFR Marginal   IFR   IFR Intensif   IFR Très Intensif
Visi : 
Plafond : 
>= 8 km
>= 3000ft
5 à 8 km
1000 à 3000 ft
1500m à 5 km
500 à 1000 ft
800 à 1500m
200 à 500 ft
< 800m
< 200 ft
Symboles :   Orages  Brouillard  Fortes neiges  Fortes précipitations  Vent > 20 kt






- Altitude de l'aérodrome : 4952 ft
- Code IATA : GUA


MGGT - La Aurora

DERNIER METAR :
  • 291300Z 07004KT 9999 BKN017 OVC080 17/16 Q1025 A3027 REDZ

METARs EXPIRÉS :
  • 291200Z 01004KT 9999 FEW006 OVC018 17/16 Q1024 A3024
  • 291100Z 02004KT 9999 OVC014 17/16 Q1024 A3024

TAF TAF MGGT
Valide du 29 à 12h jusqu'au 30 à 12h UTC


2912/3012 VRB03KT 9999 BKN014 TX25/2920Z TN17/29712Z
PROB40
TEMPO 2912/2914 7000 RADZ BKN012 OVC080
BECMG 2914/2916 04006KT SCT018
BECMG 2918/2920 18010KT
TEMPO 2919/2924 7000 TSRA SCT018TCU FEW025CB
PROB40
TEMPO 3001/3009 VRB03KT 8000 RADZ BKN012 OVC080
FIR MHTG / Amérique du Nord



MET'MAP, la Météo Aéronautique d'un coup d'oeil ! - Copyright ORBIFLY Décembre 2007 - Disclaimer

ORBIFLY MET'MAP TEAM :

Programmation & Développement : Alexandra Zaïnal
Sur une idée originale de : Baudouin d'Aumeries
Assistance à la programmation : Marc-Olivier Méhu
Soutien technique & logistique : Manuel Goepfert

Contact : metmap@orbifly.com




SOURCES & CREDITS :

   NOAA       Earth
Advisory